Airfield :
LOGIN :

Register | Disclaimer

   EN    FR    IT 

 










Legend :    VFR   Marginal VFR   IFR   Intensive IFR   Very Intensive IFR
Visi :
Ceiling :
>= 8 km
>= 3000ft
5 to 8 km
1000 to 3000 ft
1500m to 5 km
500 to 1000 ft
800 to 1500m
200 to 500 ft
< 800m
< 200 ft
Symbols :   Thunderstorms  Fog  Heavy snow  Heavy precipitations  Wind > 20 kt
SIGMETs :     Misc.  Thunderstorms  Icing  Turbulence  Mountain Waves  Volcanic Ashes







- Airport Elevation : 989 ft
- IATA code : TRN


LIMF - Torino Caselle

CURRENT METAR :
  • 240820Z 08004KT 060V120 CAVOK 28/20 Q1016

EXPIRED METARs :
  • 240750Z VRB02KT CAVOK 27/20 Q1016
  • 240720Z VRB02KT CAVOK 27/20 Q1016
  • 240650Z 18003KT 110V220 CAVOK 25/20 Q1016
  • 240620Z 24003KT 190V290 CAVOK 24/19 Q1016
  • 240550Z 27004KT CAVOK 23/19 Q1016
  • 240520Z 28004KT CAVOK 23/17 Q1016

TAF TAF LIMF
Valid from the 23 at 18:00 until the 24 at 18:00 UTC


231700Z 2318/2418 VRB05KT CAVOK
No reported NOTAMs for that airfield.



MET'MAP, your aeronautical weather chart ! - Copyright ORBIFLY December 2007 - Disclaimer

ORBIFLY MET'MAP TEAM :

Programming & Development : Alexandra Zaïnal
Concept & Development : Baudouin d'Aumeries
Co-Development & Prog : Marc-Olivier Méhu
Technical & hardware support : Manuel Goepfert

Contact : metmap@orbifly.com




SOURCES & CREDITS :

   NOAA